createdAt,value
2019-03-02T00:02:08.727Z,100060.86
2019-03-02T00:04:41.980Z,100062.23
2019-03-02T00:07:12.540Z,100066.74
2019-03-02T00:09:43.674Z,100064.16
2019-03-02T00:12:14.720Z,100066.28
2019-03-02T00:14:46.071Z,100063.24
2019-03-02T00:17:19.038Z,100069.80
2019-03-02T00:19:49.443Z,100067.05
2019-03-02T00:22:20.243Z,100064.97
2019-03-02T00:24:54.049Z,100062.52
2019-03-02T00:27:24.566Z,100054.07
2019-03-02T00:29:55.373Z,100048.70
2019-03-02T00:32:26.173Z,100043.63
2019-03-02T00:34:57.064Z,100046.22
2019-03-02T00:37:29.587Z,100051.66
2019-03-02T00:40:01.012Z,100048.31
2019-03-02T00:42:31.896Z,100053.00
2019-03-02T00:45:03.253Z,100048.32
2019-03-02T00:47:35.268Z,100051.70
2019-03-02T00:50:07.089Z,100047.30
2019-03-02T00:52:37.902Z,100050.91
2019-03-02T00:55:08.923Z,100050.55
2019-03-02T00:57:39.791Z,100045.00
2019-03-02T01:00:11.691Z,100047.20
2019-03-02T01:02:43.793Z,100047.23
2019-03-02T01:05:14.871Z,100044.44
2019-03-02T01:07:45.787Z,100039.27
2019-03-02T01:10:19.011Z,100035.75
2019-03-02T01:12:49.760Z,100041.13
2019-03-02T01:15:20.663Z,100044.97
2019-03-02T01:17:51.530Z,100049.41
2019-03-02T01:20:24.867Z,100043.22
2019-03-02T01:22:55.078Z,100038.16
2019-03-02T01:25:26.203Z,100042.94
2019-03-02T01:27:57.327Z,100036.48
2019-03-02T01:30:30.056Z,100038.05
2019-03-02T01:33:01.091Z,100036.73
2019-03-02T01:35:32.113Z,100036.31
2019-03-02T01:38:03.056Z,100036.38
2019-03-02T01:40:37.847Z,100029.28
2019-03-02T01:43:08.116Z,100031.87
2019-03-02T01:45:39.148Z,100028.55
2019-03-02T01:48:10.240Z,100025.97
2019-03-02T01:50:43.793Z,100034.09
2019-03-02T01:53:13.621Z,100035.75
2019-03-02T01:55:44.744Z,100030.89
2019-03-02T01:58:15.867Z,100023.78
2019-03-02T02:00:49.221Z,100024.81
2019-03-02T02:03:19.725Z,100025.81
2019-03-02T02:05:50.624Z,100017.95
2019-03-02T02:08:21.973Z,100026.75
2019-03-02T02:10:52.971Z,100024.59
2019-03-02T02:13:23.853Z,100029.11
2019-03-02T02:15:54.764Z,100019.91
2019-03-02T02:18:27.802Z,100009.19
2019-03-02T02:20:58.741Z,100005.66
2019-03-02T02:23:29.545Z,100005.31
2019-03-02T02:26:00.433Z,100003.66
2019-03-02T02:28:32.259Z,100001.44
2019-03-02T02:31:06.191Z,100001.80
2019-03-02T02:33:42.246Z,100003.26
2019-03-02T02:36:14.203Z,99994.95
2019-03-02T02:38:42.604Z,99984.16
2019-03-02T02:41:22.094Z,99985.16
2019-03-02T02:43:46.375Z,99974.48
2019-03-02T02:46:17.540Z,99970.85
2019-03-02T02:48:48.349Z,99969.94
2019-03-02T02:51:19.457Z,99967.62
2019-03-02T02:53:50.563Z,99966.99
2019-03-02T02:56:21.612Z,99959.71
2019-03-02T02:58:56.203Z,99956.40
2019-03-02T03:01:32.980Z,99971.16
2019-03-02T03:04:00.766Z,99963.48
2019-03-02T03:06:34.036Z,99957.58
2019-03-02T03:09:11.637Z,99956.67
2019-03-02T03:11:44.393Z,99965.08
2019-03-02T03:14:19.862Z,99958.22
2019-03-02T03:16:53.747Z,99951.48
2019-03-02T03:19:26.086Z,99952.58
2019-03-02T03:21:55.662Z,99942.82
2019-03-02T03:24:26.464Z,99948.80
2019-03-02T03:26:57.930Z,99960.33
2019-03-02T03:29:29.309Z,99958.97
2019-03-02T03:32:08.239Z,99943.33
2019-03-02T03:34:33.345Z,99957.55
2019-03-02T03:37:08.419Z,99964.64
2019-03-02T03:39:36.859Z,99965.98
2019-03-02T03:42:07.791Z,99967.11
2019-03-02T03:44:38.679Z,99968.21
2019-03-02T03:47:11.596Z,99968.03
2019-03-02T03:49:43.125Z,99967.10
2019-03-02T03:52:14.322Z,99964.88
2019-03-02T03:54:46.408Z,99970.23
2019-03-02T03:57:21.619Z,99962.20
2019-03-02T03:59:53.619Z,99964.16
2019-03-02T04:02:26.074Z,99968.97
2019-03-02T04:04:56.807Z,99971.63
2019-03-02T04:07:27.764Z,99969.95
2019-03-02T04:09:58.601Z,99972.84
2019-03-02T04:12:29.713Z,99970.78
2019-03-02T04:15:01.563Z,99970.51
2019-03-02T04:17:39.151Z,99972.08
2019-03-02T04:20:12.586Z,99967.65
2019-03-02T04:22:44.615Z,99970.87
2019-03-02T04:25:17.836Z,99968.92
2019-03-02T04:27:54.039Z,99965.70
2019-03-02T04:30:21.415Z,99965.43
2019-03-02T04:32:52.682Z,99967.65
2019-03-02T04:35:23.479Z,99965.61
2019-03-02T04:37:56.550Z,99970.49
2019-03-02T04:40:27.866Z,99970.87
2019-03-02T04:42:59.783Z,99963.39
2019-03-02T04:45:30.805Z,99972.55
2019-03-02T04:48:03.302Z,99966.54
2019-03-02T04:50:34.320Z,99968.74
2019-03-02T04:53:05.145Z,99968.67
2019-03-02T04:55:36.742Z,99964.48
2019-03-02T04:58:08.565Z,99966.52
2019-03-02T05:00:40.477Z,99964.12
2019-03-02T05:03:11.680Z,99959.50
2019-03-02T05:05:43.425Z,99956.20
2019-03-02T05:08:14.566Z,99953.05
2019-03-02T05:10:45.358Z,99948.52
2019-03-02T05:13:16.216Z,99934.41
2019-03-02T05:15:48.990Z,99933.49
2019-03-02T05:18:19.790Z,99931.09
2019-03-02T05:20:50.712Z,99938.28
2019-03-02T05:23:22.009Z,99938.28
2019-03-02T05:25:54.598Z,99947.16
2019-03-02T05:28:33.890Z,99935.16
2019-03-02T05:31:06.850Z,99938.13
2019-03-02T05:33:38.330Z,99942.45
2019-03-02T05:36:09.204Z,99935.45
2019-03-02T05:38:40.020Z,99931.66
2019-03-02T05:41:11.200Z,99932.41
2019-03-02T05:43:42.088Z,99938.68
2019-03-02T05:46:14.237Z,99930.92
2019-03-02T05:48:45.613Z,99937.01
2019-03-02T05:51:16.490Z,99928.33
2019-03-02T05:53:47.587Z,99929.24
2019-03-02T05:56:18.396Z,99926.66
2019-03-02T05:58:51.111Z,99931.66
2019-03-02T06:01:22.354Z,99927.41
2019-03-02T06:03:53.183Z,99920.84
2019-03-02T06:06:24.855Z,99920.11
2019-03-02T06:08:55.671Z,99922.59
2019-03-02T06:11:26.465Z,99924.45
2019-03-02T06:13:57.728Z,99923.23
2019-03-02T06:16:28.733Z,99917.98
2019-03-02T06:18:59.855Z,99919.47
2019-03-02T06:21:31.210Z,99916.78
2019-03-02T06:24:05.395Z,99916.13
2019-03-02T06:26:36.617Z,99916.89
2019-03-02T06:29:07.649Z,99923.70
2019-03-02T06:31:38.448Z,99919.09
2019-03-02T06:34:09.663Z,99919.94
2019-03-02T06:36:44.367Z,99920.58
2019-03-02T06:39:13.829Z,99920.20
2019-03-02T06:41:44.934Z,99917.23
2019-03-02T06:44:16.142Z,99914.66
2019-03-02T06:46:46.939Z,99918.08
2019-03-02T06:49:19.984Z,99914.66
2019-03-02T06:51:51.091Z,99914.08
2019-03-02T06:54:22.264Z,99916.86
2019-03-02T06:56:57.830Z,99916.41
2019-03-02T06:59:26.115Z,99906.52
2019-03-02T07:01:59.750Z,99915.75
2019-03-02T07:04:30.948Z,99909.55
2019-03-02T07:07:01.866Z,99912.25
2019-03-02T07:09:32.685Z,99909.40
2019-03-02T07:12:05.958Z,99909.75
2019-03-02T07:14:36.317Z,99907.42
2019-03-02T07:17:07.683Z,99909.66
2019-03-02T07:19:52.005Z,99909.09
2019-03-02T07:22:23.640Z,99897.19
2019-03-02T07:24:54.681Z,99898.02
2019-03-02T07:27:26.393Z,99901.72
2019-03-02T07:29:58.556Z,99894.67
2019-03-02T07:32:29.478Z,99893.95
2019-03-02T07:35:00.812Z,99896.73
2019-03-02T07:37:32.065Z,99893.38
2019-03-02T07:40:05.644Z,99900.30
2019-03-02T07:42:35.520Z,99900.30
2019-03-02T07:45:07.739Z,99907.23
2019-03-02T07:47:38.896Z,99905.41
2019-03-02T07:50:10.167Z,99907.80
2019-03-02T07:52:42.282Z,99904.64
2019-03-02T07:55:14.646Z,99904.94
2019-03-02T07:57:45.929Z,99911.98
2019-03-02T08:00:18.707Z,99911.15
2019-03-02T08:02:49.910Z,99905.86
2019-03-02T08:05:20.889Z,99911.69
2019-03-02T08:07:51.787Z,99912.97
2019-03-02T08:10:23.959Z,99914.08
2019-03-02T08:12:57.795Z,99904.55
2019-03-02T08:15:27.679Z,99908.32
2019-03-02T08:17:58.725Z,99907.77
2019-03-02T08:20:29.896Z,99904.42
2019-03-02T08:23:01.035Z,99899.81
2019-03-02T08:25:32.058Z,99901.32
2019-03-02T08:28:02.890Z,99901.39
2019-03-02T08:30:34.309Z,99902.40
2019-03-02T08:33:05.248Z,99903.50
2019-03-02T08:35:36.047Z,99898.30
2019-03-02T08:38:06.943Z,99893.37
2019-03-02T08:40:38.197Z,99895.08
2019-03-02T08:43:09.108Z,99891.17
2019-03-02T08:45:40.233Z,99890.60
2019-03-02T08:48:11.363Z,99890.16
2019-03-02T08:50:42.512Z,99890.86
2019-03-02T08:53:13.800Z,99890.66
2019-03-02T08:55:45.201Z,99886.38
2019-03-02T08:58:16.521Z,99884.30
2019-03-02T09:00:47.369Z,99885.20
2019-03-02T09:03:18.270Z,99885.44
2019-03-02T09:05:51.820Z,99888.93
2019-03-02T09:08:22.180Z,99887.16
2019-03-02T09:10:53.068Z,99893.25
2019-03-02T09:13:24.389Z,99891.77
2019-03-02T09:15:55.504Z,99891.42
2019-03-02T09:18:30.732Z,99877.54
2019-03-02T09:20:59.141Z,99884.23
2019-03-02T09:23:32.797Z,99886.33
2019-03-02T09:26:04.452Z,99879.02
2019-03-02T09:28:35.667Z,99876.40
2019-03-02T09:31:06.547Z,99883.69
2019-03-02T09:33:37.472Z,99880.20
2019-03-02T09:36:08.661Z,99879.48
2019-03-02T09:38:39.648Z,99873.98
2019-03-02T09:41:11.682Z,99882.67
2019-03-02T09:43:42.746Z,99876.58
2019-03-02T09:46:13.786Z,99879.91
2019-03-02T09:48:44.917Z,99879.63
2019-03-02T09:51:16.241Z,99880.11
2019-03-02T09:53:47.063Z,99881.30
2019-03-02T09:56:17.852Z,99878.84
2019-03-02T09:58:49.053Z,99874.50
2019-03-02T10:01:20.324Z,99880.46
2019-03-02T10:03:52.298Z,99882.39
2019-03-02T10:06:25.289Z,99883.16
2019-03-02T10:08:56.019Z,99879.39
2019-03-02T10:11:27.132Z,99879.45
2019-03-02T10:13:58.181Z,99878.23
2019-03-02T10:16:28.990Z,99882.29
2019-03-02T10:18:59.983Z,99885.72
2019-03-02T10:21:31.094Z,99886.45
2019-03-02T10:24:03.200Z,99889.89
2019-03-02T10:26:34.068Z,99879.56
2019-03-02T10:29:06.820Z,99880.00
2019-03-02T10:31:40.539Z,99882.73
2019-03-02T10:34:10.508Z,99882.64
2019-03-02T10:36:41.711Z,99884.40
2019-03-02T10:39:12.600Z,99888.22
2019-03-02T10:41:44.039Z,99880.86
2019-03-02T10:44:17.816Z,99882.70
2019-03-02T10:46:48.376Z,99885.88
2019-03-02T10:49:19.831Z,99882.62
2019-03-02T10:51:50.631Z,99882.74
2019-03-02T10:54:22.954Z,99882.45
2019-03-02T10:56:56.677Z,99878.31
2019-03-02T10:59:26.567Z,99875.36
2019-03-02T11:01:57.780Z,99873.55
2019-03-02T11:04:46.379Z,99868.64
2019-03-02T11:07:35.419Z,99857.08
2019-03-02T11:10:18.123Z,99864.67
2019-03-02T11:13:03.791Z,99864.22
2019-03-02T11:15:56.625Z,99859.23
2019-03-02T11:18:35.799Z,99862.82
2019-03-02T11:21:26.349Z,99860.61
2019-03-02T11:24:06.434Z,99862.52
2019-03-02T11:26:45.060Z,99859.22
2019-03-02T11:29:22.769Z,99858.75
2019-03-02T11:32:21.768Z,99862.19
2019-03-02T11:35:10.461Z,99862.28
2019-03-02T11:37:53.951Z,99858.05
2019-03-02T11:40:43.532Z,99853.93
2019-03-02T11:43:34.265Z,99856.80
2019-03-02T11:46:30.841Z,99851.87
2019-03-02T11:49:30.148Z,99853.66
2019-03-02T11:52:24.049Z,99840.53
2019-03-02T11:55:15.380Z,99853.94
2019-03-02T11:58:14.391Z,99841.53
2019-03-02T12:01:04.354Z,99840.09
2019-03-02T12:03:54.463Z,99833.33
2019-03-02T12:06:44.034Z,99841.19
2019-03-02T12:09:46.630Z,99834.43
2019-03-02T12:12:36.677Z,99834.42
2019-03-02T12:15:25.222Z,99825.29
2019-03-02T12:18:07.484Z,99825.75
2019-03-02T12:21:12.813Z,99815.94
2019-03-02T12:23:58.761Z,99819.75
2019-03-02T12:26:46.343Z,99810.76
2019-03-02T12:29:49.646Z,99811.58
2019-03-02T12:32:44.352Z,99810.99
2019-03-02T12:35:22.127Z,99809.80
2019-03-02T12:38:15.041Z,99804.25
2019-03-02T12:41:07.788Z,99804.16
2019-03-02T12:43:46.224Z,99787.11
2019-03-02T12:46:27.760Z,99789.94
2019-03-02T12:49:15.831Z,99788.27
2019-03-02T12:52:06.103Z,99780.46
2019-03-02T12:54:48.023Z,99780.76
2019-03-02T12:57:34.675Z,99780.01
2019-03-02T13:00:25.344Z,99781.06
2019-03-02T13:03:04.423Z,99772.06
2019-03-02T13:05:47.459Z,99776.05
2019-03-02T13:08:37.769Z,99765.88
2019-03-02T13:11:28.925Z,99756.98
2019-03-02T13:14:17.278Z,99756.84
2019-03-02T13:17:04.625Z,99754.02
2019-03-02T13:19:43.677Z,99748.22
2019-03-02T13:22:21.025Z,99751.50
2019-03-02T13:25:11.145Z,99747.31
2019-03-02T13:27:50.308Z,99745.41
2019-03-02T13:30:29.558Z,99747.06
2019-03-02T13:33:19.295Z,99742.13
2019-03-02T13:36:04.635Z,99742.80
2019-03-02T13:38:57.369Z,99734.91
2019-03-02T13:41:35.787Z,99737.73
2019-03-02T13:44:31.701Z,99738.34
2019-03-02T13:47:17.357Z,99736.89
2019-03-02T13:50:09.993Z,99732.27
2019-03-02T13:52:47.161Z,99730.93
2019-03-02T13:55:45.931Z,99736.50
2019-03-02T13:58:34.569Z,99727.70
2019-03-02T14:01:29.404Z,99723.48
2019-03-02T14:04:27.980Z,99719.42
2019-03-02T14:07:16.588Z,99717.69
2019-03-02T14:10:05.352Z,99721.23
2019-03-02T14:13:13.460Z,99721.41
2019-03-02T14:16:02.849Z,99718.05
2019-03-02T14:18:51.109Z,99712.84
2019-03-02T14:21:38.701Z,99715.41
2019-03-02T14:24:24.136Z,99721.63
2019-03-02T14:27:12.776Z,99716.31
2019-03-02T14:29:52.658Z,99711.44
2019-03-02T14:32:31.362Z,99713.59
2019-03-02T14:35:11.734Z,99705.05
2019-03-02T14:38:01.177Z,99703.94
2019-03-02T14:40:54.087Z,99701.08
2019-03-02T14:43:57.206Z,99711.75
2019-03-02T14:46:43.903Z,99703.83
2019-03-02T14:49:32.926Z,99708.20
2019-03-02T14:52:22.848Z,99710.98
2019-03-02T14:55:00.001Z,99708.31
2019-03-02T14:57:41.742Z,99700.87
2019-03-02T15:00:28.800Z,99709.30
2019-03-02T15:03:25.059Z,99702.67
2019-03-02T15:06:09.255Z,99708.68
2019-03-02T15:09:08.798Z,99713.85
2019-03-02T15:12:01.666Z,99698.95
2019-03-02T15:14:42.552Z,99695.95
2019-03-02T15:17:26.142Z,99697.57
2019-03-02T15:20:13.642Z,99694.86
2019-03-02T15:23:21.506Z,99691.32
2019-03-02T15:25:58.062Z,99683.87
2019-03-02T15:28:49.880Z,99680.54
2019-03-02T15:31:26.528Z,99685.42
2019-03-02T15:34:16.405Z,99683.03
2019-03-02T15:37:12.402Z,99681.16
2019-03-02T15:39:54.980Z,99678.67
2019-03-02T15:42:34.681Z,99669.88
2019-03-02T15:45:25.103Z,99661.91
2019-03-02T15:48:13.732Z,99673.58
2019-03-02T15:50:54.516Z,99673.53
2019-03-02T15:53:46.529Z,99674.77
2019-03-02T15:56:43.805Z,99675.13
2019-03-02T15:59:35.964Z,99666.02
2019-03-02T16:02:33.523Z,99653.92
2019-03-02T16:05:27.435Z,99654.61
2019-03-02T16:08:04.714Z,99652.78
2019-03-02T16:10:43.601Z,99652.42
2019-03-02T16:13:38.011Z,99656.59
2019-03-02T16:16:20.996Z,99655.74
2019-03-02T16:18:57.516Z,99655.74
2019-03-02T16:21:38.753Z,99660.17
2019-03-02T16:24:19.959Z,99664.56
2019-03-02T16:27:02.216Z,99661.42
2019-03-02T16:29:41.969Z,99648.40
2019-03-02T16:32:31.963Z,99652.67
2019-03-02T16:35:14.244Z,99656.88
2019-03-02T16:38:03.762Z,99654.23
2019-03-02T16:40:58.207Z,99654.75
2019-03-02T16:44:04.550Z,99652.41
2019-03-02T16:46:45.811Z,99654.28
2019-03-02T16:49:32.188Z,99659.16
2019-03-02T16:52:31.593Z,99655.63
2019-03-02T16:55:20.501Z,99658.69
2019-03-02T16:58:00.139Z,99663.33
2019-03-02T17:00:48.644Z,99671.03
2019-03-02T17:03:42.385Z,99672.23
2019-03-02T17:06:29.728Z,99672.84
2019-03-02T17:09:34.628Z,99665.36
2019-03-02T17:12:23.690Z,99669.66
2019-03-02T17:15:12.303Z,99667.63
2019-03-02T17:18:01.001Z,99667.77
2019-03-02T17:20:43.380Z,99672.48
2019-03-02T17:23:23.972Z,99675.91
2019-03-02T17:26:05.051Z,99672.01
2019-03-02T17:28:47.594Z,99662.46
2019-03-02T17:31:24.003Z,99676.53
2019-03-02T17:34:31.844Z,99686.17
2019-03-02T17:37:22.673Z,99693.75
2019-03-02T17:40:05.737Z,99697.78
2019-03-02T17:42:44.921Z,99720.96
2019-03-02T17:45:22.179Z,99723.31
2019-03-02T17:48:17.047Z,99732.32
2019-03-02T17:51:06.869Z,99733.39
2019-03-02T17:53:48.816Z,99740.50
2019-03-02T17:56:37.079Z,99752.81
2019-03-02T17:59:20.927Z,99750.79
2019-03-02T18:02:09.750Z,99755.53
2019-03-02T18:04:46.682Z,99761.08
2019-03-02T18:07:38.568Z,99761.92
2019-03-02T18:10:29.447Z,99761.08
2019-03-02T18:13:13.526Z,99764.89
2019-03-02T18:16:05.678Z,99766.77
2019-03-02T18:18:34.022Z,99764.16
2019-03-02T18:21:05.500Z,99767.49
2019-03-02T18:23:36.713Z,99765.60
2019-03-02T18:26:11.120Z,99766.06
2019-03-02T18:28:42.076Z,99769.62
2019-03-02T18:31:16.153Z,99771.87
2019-03-02T18:33:49.537Z,99767.13
2019-03-02T18:36:20.479Z,99770.56
2019-03-02T18:38:51.823Z,99770.67
2019-03-02T18:41:22.946Z,99774.82
2019-03-02T18:43:54.232Z,99771.39
2019-03-02T18:46:25.102Z,99778.36
2019-03-02T18:49:11.530Z,99773.39
2019-03-02T18:51:52.799Z,99778.48
2019-03-02T18:54:24.159Z,99778.02
2019-03-02T18:56:55.190Z,99778.72
2019-03-02T18:59:26.050Z,99782.13
2019-03-02T19:01:57.012Z,99780.95
2019-03-02T19:04:33.693Z,99790.16
2019-03-02T19:07:04.966Z,99796.44
2019-03-02T19:09:35.830Z,99791.44
2019-03-02T19:12:06.715Z,99804.37
2019-03-02T19:14:37.506Z,99800.30
2019-03-02T19:17:09.478Z,99795.08
2019-03-02T19:19:40.344Z,99798.27
2019-03-02T19:22:11.325Z,99804.91
2019-03-02T19:24:42.503Z,99801.11
2019-03-02T19:27:13.879Z,99804.31
2019-03-02T19:29:44.894Z,99797.58
2019-03-02T19:32:15.695Z,99803.94
2019-03-02T19:34:47.932Z,99803.94
2019-03-02T19:37:18.962Z,99807.47
2019-03-02T19:39:50.048Z,99812.39
2019-03-02T19:42:21.145Z,99815.12
2019-03-02T19:44:52.002Z,99806.63
2019-03-02T19:47:22.866Z,99808.50
2019-03-02T19:49:53.889Z,99799.20
2019-03-02T19:52:24.767Z,99802.97
2019-03-02T19:54:55.787Z,99804.03
2019-03-02T19:57:27.054Z,99798.83
2019-03-02T19:59:57.841Z,99806.62
2019-03-02T20:02:28.636Z,99808.02
2019-03-02T20:04:59.509Z,99813.92
2019-03-02T20:07:30.678Z,99812.02
2019-03-02T20:10:01.766Z,99810.99
2019-03-02T20:12:35.156Z,99807.43
2019-03-02T20:15:08.317Z,99803.98
2019-03-02T20:17:39.225Z,99810.02
2019-03-02T20:20:11.739Z,99805.52
2019-03-02T20:22:43.285Z,99805.89
2019-03-02T20:25:14.781Z,99807.66
2019-03-02T20:27:46.937Z,99815.12
2019-03-02T20:30:18.683Z,99821.11
2019-03-02T20:32:50.938Z,99823.00
2019-03-02T20:35:22.590Z,99821.78
2019-03-02T20:37:53.692Z,99822.09
2019-03-02T20:40:24.743Z,99823.11
2019-03-02T20:42:56.013Z,99823.48
2019-03-02T20:45:27.055Z,99821.11
2019-03-02T20:47:58.298Z,99814.70
2019-03-02T20:50:29.081Z,99815.15
2019-03-02T20:52:59.947Z,99816.42
2019-03-02T20:55:31.062Z,99815.38
2019-03-02T20:58:02.081Z,99820.78
2019-03-02T21:00:33.247Z,99823.03
2019-03-02T21:03:04.598Z,99824.68
2019-03-02T21:05:36.162Z,99822.18
2019-03-02T21:08:07.226Z,99822.94
2019-03-02T21:10:38.101Z,99829.06
2019-03-02T21:13:09.040Z,99830.06
2019-03-02T21:15:40.612Z,99833.23
2019-03-02T21:18:11.534Z,99835.63
2019-03-02T21:20:42.615Z,99833.73
2019-03-02T21:23:13.564Z,99840.22
2019-03-02T21:25:44.989Z,99843.04
2019-03-02T21:28:16.260Z,99853.55
2019-03-02T21:30:47.342Z,99845.55
2019-03-02T21:33:18.453Z,99849.38
2019-03-02T21:35:49.301Z,99846.47
2019-03-02T21:38:21.167Z,99852.27
2019-03-02T21:40:51.948Z,99851.22
2019-03-02T21:43:22.754Z,99845.88
2019-03-02T21:45:53.663Z,99842.26
2019-03-02T21:48:25.146Z,99843.04
2019-03-02T21:50:56.298Z,99838.58
2019-03-02T21:53:27.722Z,99833.95
2019-03-02T21:55:59.054Z,99836.92
2019-03-02T21:58:29.939Z,99826.29
2019-03-02T22:01:01.018Z,99825.83
2019-03-02T22:03:32.603Z,99822.12
2019-03-02T22:06:03.490Z,99820.97
2019-03-02T22:08:35.675Z,99828.15
2019-03-02T22:11:08.841Z,99832.17
2019-03-02T22:13:39.643Z,99822.95
2019-03-02T22:16:10.911Z,99825.68
2019-03-02T22:18:42.274Z,99817.16
2019-03-02T22:21:13.547Z,99818.67
2019-03-02T22:23:44.594Z,99817.65
2019-03-02T22:26:15.608Z,99819.05
2019-03-02T22:28:46.655Z,99822.01
2019-03-02T22:31:17.517Z,99823.42
2019-03-02T22:33:48.407Z,99824.61
2019-03-02T22:36:19.177Z,99831.44
2019-03-02T22:38:51.179Z,99829.43
2019-03-02T22:41:22.034Z,99827.42
2019-03-02T22:43:52.905Z,99823.30
2019-03-02T22:46:23.703Z,99823.25
2019-03-02T22:48:54.724Z,99827.20
2019-03-02T22:51:25.510Z,99816.93
2019-03-02T22:53:56.671Z,99827.31
2019-03-02T22:56:27.471Z,99822.48
2019-03-02T22:58:57.774Z,99823.86
2019-03-02T23:01:41.104Z,99819.88
2019-03-02T23:04:12.462Z,99825.83
2019-03-02T23:06:43.417Z,99823.23
2019-03-02T23:09:14.635Z,99823.80
2019-03-02T23:11:45.559Z,99818.20
2019-03-02T23:14:16.501Z,99817.14
2019-03-02T23:16:47.356Z,99819.95
2019-03-02T23:19:18.277Z,99818.29
2019-03-02T23:21:50.051Z,99817.59
2019-03-02T23:24:21.199Z,99822.55
2019-03-02T23:26:52.689Z,99807.58
2019-03-02T23:29:23.602Z,99806.97
2019-03-02T23:31:54.455Z,99816.53
2019-03-02T23:34:25.573Z,99809.12
2019-03-02T23:36:56.350Z,99815.69
2019-03-02T23:39:27.562Z,99801.00
2019-03-02T23:41:58.672Z,99807.83
2019-03-02T23:44:30.765Z,99802.72
2019-03-02T23:47:01.516Z,99808.30
2019-03-02T23:49:32.790Z,99800.17
2019-03-02T23:52:03.648Z,99793.77
2019-03-02T23:54:34.967Z,99794.97
2019-03-02T23:57:05.887Z,99789.27
2019-03-02T23:59:37.420Z,99789.02
